Time;durP1;ratioP1;P1;durP2;ratioP2;P2;SDS_P1;SDS_P2;PMS_P1;PMS_P2;Temp;Humidity;BMP_temperature;BMP_pressure;BME280_temperature;BME280_humidity;BME280_pressure;Samples;Min_cycle;Max_cycle;Signal;HPM_P1;HPM_P2
2022/03/31 00:00:30;;;;;;;;;;;6.90;84.30;;;;;;6220631;23;19935;-86
2022/03/31 00:03:01;;;;;;;;;;;7.00;84.40;;;;;;6219963;23;20199;-87
2022/03/31 00:05:27;;;;;;;;;;;7.00;84.40;;;;;;6220155;23;20352;-86
2022/03/31 00:08:00;;;;;;;;;;;7.00;84.50;;;;;;6219961;23;19905;-87
2022/03/31 00:10:32;;;;;;;;;;;6.90;84.70;;;;;;6219760;23;19903;-86
2022/03/31 00:13:01;;;;;;;;;;;6.90;84.80;;;;;;6220257;23;19918;-86
2022/03/31 00:15:29;;;;;;;;;;;6.90;85.10;;;;;;6220057;23;19919;-86
2022/03/31 00:18:12;;;;;;;;;;;6.80;85.50;;;;;;6221696;23;19911;-87
2022/03/31 00:20:43;;;;;;;;;;;6.70;85.90;;;;;;6222101;23;19911;-86
2022/03/31 00:23:09;;;;;;;;;;;6.70;86.10;;;;;;6222179;23;19904;-86
2022/03/31 00:25:53;;;;;;;;;;;6.70;86.30;;;;;;6221960;23;20393;-86
2022/03/31 00:28:21;;;;;;;;;;;6.70;86.30;;;;;;6222392;23;19904;-87
2022/03/31 00:30:47;;;;;;;;;;;6.70;86.20;;;;;;6221981;23;19911;-86
2022/03/31 00:33:13;;;;;;;;;;;6.80;86.20;;;;;;6222076;23;20233;-86
2022/03/31 00:35:39;;;;;;;;;;;6.80;86.30;;;;;;6222435;23;19990;-86
2022/03/31 00:38:10;;;;;;;;;;;6.70;86.70;;;;;;6221915;23;19904;-86
2022/03/31 00:40:44;;;;;;;;;;;6.70;87.20;;;;;;6222420;23;19904;-87
2022/03/31 00:43:10;;;;;;;;;;;6.60;87.40;;;;;;6222433;23;19903;-86
2022/03/31 00:45:46;;;;;;;;;;;6.50;88.10;;;;;;6223405;23;20211;-87
2022/03/31 00:48:21;;;;;;;;;;;6.50;87.90;;;;;;6228471;23;19903;-86
2022/03/31 00:50:52;;;;;;;;;;;6.40;88.40;;;;;;6243352;22;19899;-89
2022/03/31 00:53:20;;;;;;;;;;;6.30;89.00;;;;;;6248923;22;19941;-86
2022/03/31 00:55:49;;;;;;;;;;;6.20;89.20;;;;;;6274535;23;19927;-91
2022/03/31 00:58:20;;;;;;;;;;;6.20;90.00;;;;;;6243239;23;19931;-87
2022/03/31 01:00:55;;;;;;;;;;;6.20;89.50;;;;;;6198921;23;19934;-86
2022/03/31 01:03:23;;;;;;;;;;;6.20;89.60;;;;;;6222388;23;19990;-86
2022/03/31 01:05:49;;;;;;;;;;;6.30;89.90;;;;;;6221503;23;19904;-87
2022/03/31 01:08:31;;;;;;;;;;;6.20;90.00;;;;;;6221962;23;20234;-87
2022/03/31 01:11:04;;;;;;;;;;;6.20;90.00;;;;;;6221195;23;19904;-86
2022/03/31 01:13:32;;;;;;;;;;;6.20;90.10;;;;;;6221744;23;20310;-87
2022/03/31 01:16:07;;;;;;;;;;;6.20;90.10;;;;;;6196801;23;19912;-87
2022/03/31 01:18:34;;;;;;;;;;;6.20;90.00;;;;;;6221615;23;20156;-87
2022/03/31 01:21:01;;;;;;;;;;;6.20;90.10;;;;;;6221701;23;19910;-86
2022/03/31 01:23:36;;;;;;;;;;;6.20;90.40;;;;;;6221995;23;19903;-86
2022/03/31 01:26:10;;;;;;;;;;;6.20;90.30;;;;;;6221256;23;19903;-87
2022/03/31 01:29:01;;;;;;;;;;;6.10;90.40;;;;;;6221266;23;19903;-86
2022/03/31 01:31:27;;;;;;;;;;;6.10;90.50;;;;;;6210709;23;19907;-87
2022/03/31 01:33:55;;;;;;;;;;;6.10;90.50;;;;;;6221515;23;19950;-87
2022/03/31 01:36:21;;;;;;;;;;;6.10;90.60;;;;;;6221369;23;20034;-86
2022/03/31 01:38:51;;;;;;;;;;;6.00;90.70;;;;;;6221333;23;19904;-87
2022/03/31 01:41:22;;;;;;;;;;;6.00;90.70;;;;;;6220825;23;20307;-86
2022/03/31 01:43:50;;;;;;;;;;;5.90;90.80;;;;;;6196757;23;19907;-89
2022/03/31 01:46:22;;;;;;;;;;;5.90;90.90;;;;;;6220910;23;19958;-86
2022/03/31 01:48:56;;;;;;;;;;;5.90;90.90;;;;;;6221456;23;20317;-87
2022/03/31 01:51:24;;;;;;;;;;;5.90;90.90;;;;;;6220431;23;19922;-86
2022/03/31 01:53:52;;;;;;;;;;;5.90;91.00;;;;;;6220921;23;19916;-86
2022/03/31 01:56:23;;;;;;;;;;;5.90;91.10;;;;;;6220940;23;19908;-87
2022/03/31 01:58:49;;;;;;;;;;;5.80;91.20;;;;;;6196683;23;19915;-91
2022/03/31 02:01:20;;;;;;;;;;;5.80;91.30;;;;;;6221610;23;19904;-87
2022/03/31 02:03:48;;;;;;;;;;;5.70;91.50;;;;;;6221606;23;20225;-87
2022/03/31 02:06:26;;;;;;;;;;;5.60;91.60;;;;;;6221096;23;20309;-87
2022/03/31 02:08:56;;;;;;;;;;;5.60;91.70;;;;;;6200921;23;19908;-87
2022/03/31 02:11:27;;;;;;;;;;;5.50;91.70;;;;;;6263978;23;19904;-87
2022/03/31 02:13:55;;;;;;;;;;;5.50;91.80;;;;;;6203936;23;19916;-87
2022/03/31 02:16:23;;;;;;;;;;;5.50;91.80;;;;;;6249864;23;19904;-86
2022/03/31 02:18:48;;;;;;;;;;;5.50;91.80;;;;;;6224206;23;19955;-86
2022/03/31 02:21:17;;;;;;;;;;;5.40;91.80;;;;;;6235966;23;19894;-86
2022/03/31 02:23:45;;;;;;;;;;;5.30;91.80;;;;;;6235291;23;19940;-87
2022/03/31 02:26:18;;;;;;;;;;;5.30;91.80;;;;;;6266876;23;19903;-88
2022/03/31 02:28:57;;;;;;;;;;;5.20;92.00;;;;;;6239025;23;19926;-86
2022/03/31 02:31:43;;;;;;;;;;;5.20;92.10;;;;;;6204222;23;19955;-86
2022/03/31 02:34:17;;;;;;;;;;;5.10;92.40;;;;;;6221154;23;19916;-87
2022/03/31 02:36:48;;;;;;;;;;;5.00;92.30;;;;;;6247348;23;19903;-86
2022/03/31 02:39:16;;;;;;;;;;;5.00;92.30;;;;;;6220278;23;20402;-86
2022/03/31 02:41:54;;;;;;;;;;;;;;;;;;;;;
2022/03/31 02:44:29;;;;;;;;;;;4.90;92.40;;;;;;6247823;23;19982;-86
2022/03/31 02:46:57;;;;;;;;;;;4.90;92.40;;;;;;6221028;23;20203;-87
2022/03/31 02:49:23;;;;;;;;;;;5.00;92.40;;;;;;6220758;23;19903;-87
2022/03/31 02:51:50;;;;;;;;;;;4.90;92.40;;;;;;6195129;23;19920;-86
2022/03/31 02:57:08;;;;;;;;;;;4.90;92.40;;;;;;6247165;23;20014;-87
2022/03/31 02:59:34;;;;;;;;;;;4.90;92.40;;;;;;6196838;23;19907;-87
2022/03/31 03:02:10;;;;;;;;;;;4.90;92.40;;;;;;6220750;23;20430;-88
2022/03/31 03:04:35;;;;;;;;;;;4.80;92.50;;;;;;6221131;23;19903;-86
2022/03/31 03:07:06;;;;;;;;;;;4.80;92.50;;;;;;6220605;23;19903;-87
2022/03/31 03:09:32;;;;;;;;;;;4.80;92.50;;;;;;6220940;23;20246;-86
2022/03/31 03:11:57;;;;;;;;;;;4.80;92.50;;;;;;6194978;23;19919;-88
2022/03/31 03:14:25;;;;;;;;;;;4.70;92.40;;;;;;6220121;23;19912;-87
2022/03/31 03:16:51;;;;;;;;;;;4.70;92.50;;;;;;6220227;23;19904;-86
2022/03/31 03:19:17;;;;;;;;;;;4.70;92.60;;;;;;6220406;23;20204;-87
2022/03/31 03:21:45;;;;;;;;;;;4.70;92.60;;;;;;6220170;23;19904;-87
2022/03/31 03:24:13;;;;;;;;;;;4.70;92.50;;;;;;6220753;23;20207;-87
2022/03/31 03:26:41;;;;;;;;;;;4.80;92.50;;;;;;6247368;23;19911;-87
2022/03/31 03:29:07;;;;;;;;;;;4.80;92.40;;;;;;6220485;23;19903;-87
2022/03/31 03:31:33;;;;;;;;;;;4.70;92.40;;;;;;6220532;23;20006;-86
2022/03/31 03:34:10;;;;;;;;;;;4.70;92.40;;;;;;6220327;23;19911;-87
2022/03/31 03:36:44;;;;;;;;;;;4.70;92.40;;;;;;6220896;23;19904;-86
2022/03/31 03:39:11;;;;;;;;;;;4.70;92.40;;;;;;6221039;23;19926;-88
2022/03/31 03:41:39;;;;;;;;;;;4.60;92.50;;;;;;6221520;23;19919;-88
2022/03/31 03:44:07;;;;;;;;;;;4.50;92.60;;;;;;6216694;23;19944;-88
2022/03/31 03:46:43;;;;;;;;;;;4.50;92.60;;;;;;6223070;23;19922;-87
2022/03/31 03:49:16;;;;;;;;;;;4.50;92.50;;;;;;6235417;23;19907;-87
2022/03/31 03:51:44;;;;;;;;;;;4.60;92.60;;;;;;6236170;23;19915;-87
2022/03/31 03:54:17;;;;;;;;;;;4.60;92.50;;;;;;6220936;23;19919;-87
2022/03/31 03:57:09;;;;;;;;;;;4.60;92.50;;;;;;6196035;23;19939;-87
2022/03/31 03:59:40;;;;;;;;;;;4.50;92.60;;;;;;6218574;23;19930;-86
2022/03/31 04:02:05;;;;;;;;;;;4.50;92.70;;;;;;6246977;23;19907;-87
2022/03/31 04:04:40;;;;;;;;;;;4.50;92.80;;;;;;6220316;23;19904;-86
2022/03/31 04:07:08;;;;;;;;;;;4.40;92.80;;;;;;6219771;23;20311;-87
2022/03/31 04:09:39;;;;;;;;;;;4.40;93.00;;;;;;6195146;23;19907;-86
2022/03/31 04:12:12;;;;;;;;;;;4.30;93.20;;;;;;6219877;23;20353;-87
2022/03/31 04:14:48;;;;;;;;;;;4.30;93.20;;;;;;6220263;23;19916;-87
2022/03/31 04:17:16;;;;;;;;;;;4.40;93.20;;;;;;6220338;23;20294;-87
2022/03/31 04:19:47;;;;;;;;;;;4.40;93.40;;;;;;6220325;23;19903;-86
2022/03/31 04:22:12;;;;;;;;;;;4.30;93.40;;;;;;6220178;23;19939;-87
2022/03/31 04:24:40;;;;;;;;;;;4.20;93.50;;;;;;6195059;23;19919;-86
2022/03/31 04:27:08;;;;;;;;;;;4.20;93.60;;;;;;6219954;23;19927;-86
2022/03/31 04:29:39;;;;;;;;;;;4.10;93.70;;;;;;6219725;23;19979;-86
2022/03/31 04:32:05;;;;;;;;;;;4.10;94.10;;;;;;6219686;23;20267;-87
2022/03/31 04:34:39;;;;;;;;;;;4.00;93.80;;;;;;6194309;23;19954;-86
2022/03/31 04:37:13;;;;;;;;;;;4.00;93.90;;;;;;6195517;23;19914;-90
2022/03/31 04:39:49;;;;;;;;;;;;;;;;;;;;;
2022/03/31 04:42:20;;;;;;;;;;;4.20;93.80;;;;;;6247065;23;19986;-87
2022/03/31 04:44:51;;;;;;;;;;;4.10;93.80;;;;;;6220957;23;19943;-87
2022/03/31 04:47:16;;;;;;;;;;;4.10;93.80;;;;;;6219797;23;19904;-87
2022/03/31 04:49:45;;;;;;;;;;;4.10;93.80;;;;;;6219392;22;19911;-88
2022/03/31 04:52:28;;;;;;;;;;;4.20;93.80;;;;;;6220277;23;19954;-88
2022/03/31 04:55:15;;;;;;;;;;;4.20;93.80;;;;;;6219836;23;20330;-88
2022/03/31 04:57:42;;;;;;;;;;;4.20;93.80;;;;;;6198119;23;19914;-88
2022/03/31 05:00:11;;;;;;;;;;;4.10;93.70;;;;;;6220516;23;20389;-88
2022/03/31 05:02:39;;;;;;;;;;;4.20;93.70;;;;;;6221286;23;19904;-86
2022/03/31 05:05:15;;;;;;;;;;;;;;;;;;;;;
2022/03/31 05:07:46;;;;;;;;;;;4.20;93.60;;;;;;6258761;22;19907;-87
2022/03/31 05:10:12;;;;;;;;;;;4.20;93.50;;;;;;6249422;22;19892;-89
2022/03/31 05:12:40;;;;;;;;;;;4.10;93.50;;;;;;6250031;22;19995;-88
2022/03/31 05:15:33;;;;;;;;;;;4.10;93.40;;;;;;6248590;23;19906;-87
2022/03/31 05:18:10;;;;;;;;;;;4.10;93.40;;;;;;6205942;23;19953;-90
2022/03/31 05:20:38;;;;;;;;;;;4.00;93.50;;;;;;6222414;23;19935;-87
2022/03/31 05:23:06;;;;;;;;;;;3.90;93.70;;;;;;6221827;23;19904;-86
2022/03/31 05:25:32;;;;;;;;;;;3.90;93.80;;;;;;6247669;23;20250;-86
2022/03/31 05:28:00;;;;;;;;;;;3.90;93.80;;;;;;6221165;23;19957;-84
2022/03/31 05:30:31;;;;;;;;;;;3.90;93.80;;;;;;6223150;23;20326;-87
2022/03/31 05:33:00;;;;;;;;;;;3.80;93.90;;;;;;6197867;23;19908;-86
2022/03/31 05:35:28;;;;;;;;;;;3.80;94.10;;;;;;6220911;23;19918;-89
2022/03/31 05:37:59;;;;;;;;;;;3.70;94.30;;;;;;6221539;23;19903;-87
2022/03/31 05:40:27;;;;;;;;;;;3.70;94.30;;;;;;6221425;23;20230;-88
2022/03/31 05:43:23;;;;;;;;;;;3.70;94.40;;;;;;6247941;23;19904;-90
2022/03/31 05:45:49;;;;;;;;;;;3.70;94.50;;;;;;6220645;23;19926;-87
2022/03/31 05:48:15;;;;;;;;;;;3.60;94.50;;;;;;6220723;23;19904;-86
2022/03/31 05:50:40;;;;;;;;;;;3.70;94.60;;;;;;6225712;23;19916;-87
2022/03/31 05:53:06;;;;;;;;;;;3.70;94.50;;;;;;6250556;22;19911;-86
2022/03/31 05:55:32;;;;;;;;;;;3.60;94.80;;;;;;6251401;22;19911;-86
2022/03/31 05:58:01;;;;;;;;;;;3.60;94.60;;;;;;6251465;22;19907;-87
2022/03/31 06:00:26;;;;;;;;;;;3.70;94.60;;;;;;6251586;22;19991;-88
2022/03/31 06:02:53;;;;;;;;;;;3.70;94.60;;;;;;6251827;22;19907;-88
2022/03/31 06:05:19;;;;;;;;;;;3.70;94.60;;;;;;6251354;22;20295;-87
2022/03/31 06:07:44;;;;;;;;;;;3.60;94.50;;;;;;6278824;22;19911;-86
2022/03/31 06:10:20;;;;;;;;;;;3.60;94.50;;;;;;6251636;22;19903;-86
2022/03/31 06:12:48;;;;;;;;;;;3.60;94.50;;;;;;6278733;22;19903;-86
2022/03/31 06:15:17;;;;;;;;;;;3.60;94.50;;;;;;6251519;22;20012;-87
2022/03/31 06:17:52;;;;;;;;;;;3.60;94.60;;;;;;6278289;22;19903;-87
2022/03/31 06:20:23;;;;;;;;;;;3.50;94.60;;;;;;6251632;22;20309;-87
2022/03/31 06:22:51;;;;;;;;;;;3.60;94.70;;;;;;6251936;22;19921;-88
2022/03/31 06:25:17;;;;;;;;;;;3.60;94.70;;;;;;6225874;22;19907;-87
2022/03/31 06:27:50;;;;;;;;;;;3.50;94.70;;;;;;6252371;22;19903;-86
2022/03/31 06:30:21;;;;;;;;;;;3.60;94.70;;;;;;6266854;22;19888;-87
2022/03/31 06:32:52;;;;;;;;;;;3.60;94.70;;;;;;6279484;22;19930;-87
2022/03/31 06:35:21;;;;;;;;;;;3.70;94.60;;;;;;6279025;22;19943;-90
2022/03/31 06:37:49;;;;;;;;;;;3.60;94.60;;;;;;6253036;22;19914;-85
2022/03/31 06:40:31;;;;;;;;;;;;;;;;;;;;;
2022/03/31 06:42:59;;;;;;;;;;;3.70;94.60;;;;;;6279348;22;20385;-88
2022/03/31 06:45:27;;;;;;;;;;;3.70;94.60;;;;;;6251817;22;19910;-87
2022/03/31 06:48:04;;;;;;;;;;;3.70;94.60;;;;;;6251381;22;19907;-88
2022/03/31 06:50:33;;;;;;;;;;;3.70;94.50;;;;;;6243479;23;19971;-88
2022/03/31 06:52:59;;;;;;;;;;;3.70;94.50;;;;;;6220669;23;19914;-87
2022/03/31 06:55:27;;;;;;;;;;;3.70;94.60;;;;;;6220300;23;19911;-89
2022/03/31 06:57:53;;;;;;;;;;;3.70;94.60;;;;;;6220855;23;19911;-86
2022/03/31 07:00:36;;;;;;;;;;;;;;;;;;;;;
2022/03/31 07:03:02;;;;;;;;;;;3.60;94.60;;;;;;6247648;23;19993;-87
2022/03/31 07:08:27;;;;;;;;;;;3.60;94.80;;;;;;6246940;23;20322;-85
2022/03/31 07:11:02;;;;;;;;;;;3.60;94.80;;;;;;6220458;23;19950;-86
2022/03/31 07:13:31;;;;;;;;;;;3.60;94.80;;;;;;6220702;23;19908;-87
2022/03/31 07:16:06;;;;;;;;;;;3.60;94.80;;;;;;6195396;23;19938;-86
2022/03/31 07:22:10;;;;;;;;;;;3.60;94.90;;;;;;6213478;23;19986;-88
2022/03/31 07:24:44;;;;;;;;;;;3.70;95.00;;;;;;6247172;23;19904;-87
2022/03/31 07:27:25;;;;;;;;;;;3.60;95.00;;;;;;6197376;23;19907;-87
2022/03/31 07:30:24;;;;;;;;;;;;;;;;;;;;;
2022/03/31 07:32:53;;;;;;;;;;;3.60;95.20;;;;;;6247312;23;19986;-86
2022/03/31 07:35:21;;;;;;;;;;;3.60;95.30;;;;;;6220290;23;19915;-87
2022/03/31 07:37:48;;;;;;;;;;;3.60;95.30;;;;;;6220529;23;19903;-85
2022/03/31 07:40:24;;;;;;;;;;;3.60;95.30;;;;;;6220521;23;20337;-86
2022/03/31 07:42:50;;;;;;;;;;;3.60;95.30;;;;;;6196348;23;20310;-86
2022/03/31 07:45:18;;;;;;;;;;;3.70;95.40;;;;;;6220949;23;20030;-86
2022/03/31 07:47:46;;;;;;;;;;;3.70;95.40;;;;;;6220681;23;19915;-86
2022/03/31 07:50:15;;;;;;;;;;;3.80;95.40;;;;;;6220920;22;19904;-86
2022/03/31 07:52:43;;;;;;;;;;;3.80;95.50;;;;;;6221361;23;19904;-86
2022/03/31 07:55:19;;;;;;;;;;;3.80;95.50;;;;;;6238204;23;19922;-86
2022/03/31 08:00:31;;;;;;;;;;;3.90;95.50;;;;;;6274161;22;19891;-87
2022/03/31 08:03:01;;;;;;;;;;;3.90;95.40;;;;;;6242277;23;19903;-87
2022/03/31 08:05:29;;;;;;;;;;;3.90;95.40;;;;;;6220908;23;19942;-88
2022/03/31 08:07:58;;;;;;;;;;;3.90;95.70;;;;;;6221248;23;19903;-87
2022/03/31 08:10:31;;;;;;;;;;;3.90;95.40;;;;;;6195519;23;19914;-87
2022/03/31 08:13:09;;;;;;;;;;;4.00;95.40;;;;;;6220307;23;19957;-87
2022/03/31 08:15:41;;;;;;;;;;;4.00;95.40;;;;;;6220567;23;19999;-87
2022/03/31 08:18:07;;;;;;;;;;;4.00;95.40;;;;;;6247015;23;19974;-86
2022/03/31 08:20:38;;;;;;;;;;;3.90;95.30;;;;;;6195022;23;19994;-86
2022/03/31 08:23:03;;;;;;;;;;;3.90;95.40;;;;;;6220030;23;19903;-86
2022/03/31 08:25:29;;;;;;;;;;;3.90;95.50;;;;;;6219932;23;20148;-86
2022/03/31 08:28:00;;;;;;;;;;;4.00;95.50;;;;;;6220086;23;19935;-85
2022/03/31 08:30:33;;;;;;;;;;;4.10;95.50;;;;;;6220010;23;19903;-86
2022/03/31 08:32:58;;;;;;;;;;;4.10;95.50;;;;;;6219809;23;19955;-86
2022/03/31 08:35:28;;;;;;;;;;;4.10;95.40;;;;;;6219577;23;19946;-86
2022/03/31 08:37:56;;;;;;;;;;;4.10;95.50;;;;;;6220444;23;20230;-85
2022/03/31 08:40:32;;;;;;;;;;;4.10;95.50;;;;;;6221603;23;19939;-86
2022/03/31 08:45:49;;;;;;;;;;;4.10;95.40;;;;;;6226794;23;19907;-88
2022/03/31 08:54:12;;;;;;;;;;;4.10;95.50;;;;;;6249906;23;20005;-87
2022/03/31 08:56:38;;;;;;;;;;;4.00;95.50;;;;;;6222562;23;19907;-87
2022/03/31 08:59:07;;;;;;;;;;;4.00;95.50;;;;;;6221981;23;19990;-86
2022/03/31 09:01:51;;;;;;;;;;;4.00;95.50;;;;;;6221847;23;19958;-86
2022/03/31 09:04:23;;;;;;;;;;;4.00;95.60;;;;;;6221910;23;19904;-85
2022/03/31 09:07:16;;;;;;;;;;;4.00;95.60;;;;;;6221841;23;19908;-86
2022/03/31 09:09:50;;;;;;;;;;;4.00;95.60;;;;;;6222558;23;19904;-89
2022/03/31 09:12:30;;;;;;;;;;;4.00;95.50;;;;;;6222692;23;19911;-88
2022/03/31 09:14:55;;;;;;;;;;;4.00;95.50;;;;;;6224946;23;19915;-87
2022/03/31 09:17:21;;;;;;;;;;;3.90;95.60;;;;;;6214826;23;19946;-86
2022/03/31 09:19:47;;;;;;;;;;;3.90;95.70;;;;;;6247941;23;19892;-87
2022/03/31 09:22:12;;;;;;;;;;;3.90;95.70;;;;;;6249279;22;19914;-86
2022/03/31 09:24:41;;;;;;;;;;;3.80;95.80;;;;;;6248971;22;19910;-88
2022/03/31 09:27:09;;;;;;;;;;;3.80;95.90;;;;;;6242718;23;20321;-86
2022/03/31 09:29:42;;;;;;;;;;;3.80;95.90;;;;;;6223160;23;19907;-88
2022/03/31 09:32:23;;;;;;;;;;;3.90;96.00;;;;;;6222698;23;20230;-87
2022/03/31 09:34:49;;;;;;;;;;;3.90;96.00;;;;;;6196536;23;19916;-86
2022/03/31 09:37:17;;;;;;;;;;;3.90;96.00;;;;;;6221813;23;20332;-87
2022/03/31 09:42:39;;;;;;;;;;;4.00;96.00;;;;;;6248290;23;19914;-86
2022/03/31 09:45:08;;;;;;;;;;;4.10;96.00;;;;;;6221222;23;20226;-86
2022/03/31 09:47:45;;;;;;;;;;;4.10;96.00;;;;;;6221289;23;19985;-87
2022/03/31 09:50:16;;;;;;;;;;;4.10;95.90;;;;;;6221212;22;20329;-87
2022/03/31 09:52:44;;;;;;;;;;;4.10;96.00;;;;;;6196631;23;19956;-88
2022/03/31 09:55:23;;;;;;;;;;;;;;;;;;;;;
2022/03/31 09:57:57;;;;;;;;;;;4.10;95.90;;;;;;6248244;23;20364;-89
2022/03/31 10:00:31;;;;;;;;;;;4.20;95.90;;;;;;6222098;23;19910;-89
2022/03/31 10:03:00;;;;;;;;;;;4.20;95.90;;;;;;6221508;23;19959;-88
2022/03/31 10:05:29;;;;;;;;;;;4.20;96.00;;;;;;6221634;23;20246;-88
2022/03/31 10:07:57;;;;;;;;;;;4.20;96.00;;;;;;6221191;23;19980;-87
2022/03/31 10:10:33;;;;;;;;;;;;;;;;;;;;;
2022/03/31 10:13:06;;;;;;;;;;;4.30;96.00;;;;;;6248263;23;19986;-88
2022/03/31 10:15:40;;;;;;;;;;;4.30;95.80;;;;;;6221618;23;19911;-88
2022/03/31 10:18:08;;;;;;;;;;;4.30;95.80;;;;;;6221673;23;20310;-88
2022/03/31 10:20:36;;;;;;;;;;;4.20;95.80;;;;;;6221394;23;20025;-88
2022/03/31 10:25:57;;;;;;;;;;;4.20;95.80;;;;;;6247965;23;19911;-88
2022/03/31 10:28:29;;;;;;;;;;;4.20;95.90;;;;;;6197119;23;19908;-89
2022/03/31 10:31:04;;;;;;;;;;;4.20;96.00;;;;;;6221472;23;20373;-88
2022/03/31 10:33:38;;;;;;;;;;;4.20;96.00;;;;;;6196446;23;20368;-89
2022/03/31 10:36:50;;;;;;;;;;;4.20;96.10;;;;;;6221400;23;19904;-88
2022/03/31 10:39:39;;;;;;;;;;;4.30;96.10;;;;;;6185649;23;19914;-88
2022/03/31 10:42:14;;;;;;;;;;;4.40;96.00;;;;;;6194884;23;19938;-88
2022/03/31 10:45:10;;;;;;;;;;;4.40;96.00;;;;;;6221421;22;19899;-88
2022/03/31 10:47:52;;;;;;;;;;;;;;;;;;;;;
2022/03/31 10:50:28;;;;;;;;;;;4.40;95.80;;;;;;6272628;22;19895;-88
2022/03/31 10:53:19;;;;;;;;;;;4.50;95.80;;;;;;6200947;23;19904;-89
2022/03/31 10:56:13;;;;;;;;;;;;;;;;;;;;;
2022/03/31 11:01:37;;;;;;;;;;;4.50;96.00;;;;;;6217599;23;19958;-88
2022/03/31 11:04:14;;;;;;;;;;;4.40;95.90;;;;;;6190797;23;19908;-88
2022/03/31 11:07:03;;;;;;;;;;;4.40;95.80;;;;;;6190481;23;19904;-88
2022/03/31 11:09:32;;;;;;;;;;;4.40;95.90;;;;;;6167684;23;19947;-88
2022/03/31 11:12:00;;;;;;;;;;;4.40;96.00;;;;;;6190278;23;19923;-88
2022/03/31 11:14:34;;;;;;;;;;;4.40;96.00;;;;;;6165782;23;19916;-88
2022/03/31 11:17:05;;;;;;;;;;;4.40;95.90;;;;;;6189781;23;20273;-87
2022/03/31 11:19:55;;;;;;;;;;;4.50;96.10;;;;;;6190702;23;19908;-88
2022/03/31 11:22:49;;;;;;;;;;;4.50;96.10;;;;;;6190799;23;19904;-88
2022/03/31 11:25:18;;;;;;;;;;;4.40;95.90;;;;;;6185215;23;19931;-88
2022/03/31 11:27:46;;;;;;;;;;;4.50;96.10;;;;;;6190397;23;20333;-88
2022/03/31 11:30:14;;;;;;;;;;;4.50;96.00;;;;;;6190976;23;19903;-88
2022/03/31 11:32:43;;;;;;;;;;;4.60;96.00;;;;;;6190492;23;19904;-88
2022/03/31 11:35:14;;;;;;;;;;;4.70;96.00;;;;;;6190200;23;19916;-87
2022/03/31 11:37:48;;;;;;;;;;;4.70;95.80;;;;;;6217432;23;20234;-89
2022/03/31 11:40:29;;;;;;;;;;;4.60;95.80;;;;;;6190687;23;19904;-88
2022/03/31 11:43:10;;;;;;;;;;;;;;;;;;;;;
2022/03/31 11:45:42;;;;;;;;;;;4.60;95.80;;;;;;6217343;23;19983;-89
2022/03/31 11:48:11;;;;;;;;;;;4.60;95.80;;;;;;6190689;23;19908;-88
2022/03/31 11:50:40;;;;;;;;;;;4.60;95.90;;;;;;6196369;23;19961;-89
2022/03/31 11:53:23;;;;;;;;;;;4.60;95.80;;;;;;6220496;23;19911;-89
2022/03/31 11:56:15;;;;;;;;;;;;;;;;;;;;;
2022/03/31 11:58:53;;;;;;;;;;;4.60;95.80;;;;;;6247607;23;19978;-89
2022/03/31 12:01:27;;;;;;;;;;;4.70;95.90;;;;;;6220793;23;19939;-88
2022/03/31 12:04:08;;;;;;;;;;;;;;;;;;;;;
2022/03/31 12:06:47;;;;;;;;;;;4.60;95.90;;;;;;6224990;23;19974;-89
2022/03/31 12:09:25;;;;;;;;;;;4.70;95.90;;;;;;6240236;23;19907;-88
2022/03/31 12:11:55;;;;;;;;;;;4.70;95.90;;;;;;6226763;23;19935;-89
2022/03/31 12:14:46;;;;;;;;;;;4.70;95.80;;;;;;6249743;23;19899;-88
2022/03/31 12:17:20;;;;;;;;;;;4.70;95.90;;;;;;6249216;23;19930;-83
2022/03/31 12:19:46;;;;;;;;;;;4.70;95.90;;;;;;6239359;23;19903;-88
2022/03/31 12:22:12;;;;;;;;;;;4.70;95.90;;;;;;6222775;23;19978;-88
2022/03/31 12:24:54;;;;;;;;;;;4.70;95.70;;;;;;6222751;23;19979;-89
2022/03/31 12:27:30;;;;;;;;;;;;;;;;;;;;;
2022/03/31 12:30:02;;;;;;;;;;;4.60;95.80;;;;;;6224659;23;20292;-88
2022/03/31 12:32:59;;;;;;;;;;;4.50;95.80;;;;;;6222736;23;20290;-88
2022/03/31 12:35:36;;;;;;;;;;;4.50;96.00;;;;;;6222490;23;19965;-87
2022/03/31 12:38:07;;;;;;;;;;;4.50;96.10;;;;;;6222288;23;20302;-88
2022/03/31 12:40:36;;;;;;;;;;;4.50;96.00;;;;;;6222270;23;20318;-88
2022/03/31 12:43:19;;;;;;;;;;;4.50;95.90;;;;;;6221811;23;19919;-88
2022/03/31 12:45:52;;;;;;;;;;;4.50;96.00;;;;;;6222584;23;20371;-88
2022/03/31 12:48:36;;;;;;;;;;;;;;;;;;;;;
2022/03/31 12:51:34;;;;;;;;;;;4.60;95.90;;;;;;6224488;23;19995;-90
2022/03/31 12:54:02;;;;;;;;;;;4.50;95.90;;;;;;6211272;23;19911;-88
2022/03/31 12:59:33;;;;;;;;;;;;;;;;;;;;;
2022/03/31 13:02:27;;;;;;;;;;;4.40;96.00;;;;;;6248953;23;19979;-88
2022/03/31 13:05:22;;;;;;;;;;;;;;;;;;;;;
2022/03/31 13:07:54;;;;;;;;;;;4.30;96.20;;;;;;6249483;23;20389;-88
2022/03/31 13:10:41;;;;;;;;;;;4.30;96.20;;;;;;6222555;23;20332;-88
2022/03/31 13:13:24;;;;;;;;;;;4.40;96.30;;;;;;6196899;23;19930;-88
2022/03/31 13:16:32;;;;;;;;;;;;;;;;;;;;;
2022/03/31 13:19:32;;;;;;;;;;;;;;;;;;;;;
2022/03/31 13:22:11;;;;;;;;;;;4.50;96.20;;;;;;6248958;23;19998;-88
2022/03/31 13:24:43;;;;;;;;;;;4.50;96.10;;;;;;6223793;23;20293;-88
2022/03/31 13:27:12;;;;;;;;;;;4.60;96.10;;;;;;6252296;23;19903;-88
2022/03/31 13:32:29;;;;;;;;;;;4.50;96.10;;;;;;6234375;23;19927;-87
2022/03/31 13:35:07;;;;;;;;;;;4.50;96.00;;;;;;6237946;23;19953;-89
2022/03/31 13:37:59;;;;;;;;;;;4.50;96.00;;;;;;6242946;23;19903;-88
2022/03/31 13:40:54;;;;;;;;;;;4.50;96.00;;;;;;6243749;23;19907;-89
2022/03/31 13:43:47;;;;;;;;;;;4.50;96.00;;;;;;6224970;23;19904;-88
2022/03/31 13:46:19;;;;;;;;;;;4.50;96.00;;;;;;6222191;23;19907;-88
2022/03/31 13:48:47;;;;;;;;;;;4.50;96.00;;;;;;6196657;23;19927;-88
2022/03/31 13:54:16;;;;;;;;;;;4.50;96.00;;;;;;6180220;23;19924;-87
2022/03/31 13:56:52;;;;;;;;;;;4.50;96.00;;;;;;6221811;23;20333;-87
2022/03/31 14:02:09;;;;;;;;;;;4.60;95.90;;;;;;6247586;23;20246;-88
2022/03/31 14:04:51;;;;;;;;;;;4.50;95.80;;;;;;6221511;23;19904;-89
2022/03/31 14:07:29;;;;;;;;;;;4.50;95.80;;;;;;6221481;23;19903;-88
2022/03/31 14:10:36;;;;;;;;;;;4.50;95.90;;;;;;6199049;23;19946;-87
2022/03/31 14:13:20;;;;;;;;;;;4.50;95.80;;;;;;6247175;23;19915;-89
2022/03/31 14:16:02;;;;;;;;;;;;;;;;;;;;;
2022/03/31 14:21:53;;;;;;;;;;;;;;;;;;;;;
2022/03/31 14:24:31;;;;;;;;;;;4.30;95.80;;;;;;6247746;23;19986;-91
2022/03/31 14:30:15;;;;;;;;;;;4.30;95.90;;;;;;6201225;23;20316;-88
2022/03/31 14:32:45;;;;;;;;;;;4.20;96.00;;;;;;6222492;22;19907;-89
2022/03/31 14:35:23;;;;;;;;;;;4.20;95.90;;;;;;6277823;22;19918;-88
2022/03/31 14:37:49;;;;;;;;;;;4.20;96.00;;;;;;6252395;22;20343;-88
2022/03/31 14:40:18;;;;;;;;;;;4.30;96.00;;;;;;6252593;22;19903;-89
2022/03/31 14:43:07;;;;;;;;;;;;;;;;;;;;;
2022/03/31 14:49:02;;;;;;;;;;;;;;;;;;;;;
2022/03/31 14:51:47;;;;;;;;;;;4.10;95.70;;;;;;6276034;22;19960;-90
2022/03/31 15:29:01;;;;;;;;;;;;;;;;;;;;;
2022/03/31 15:54:39;;;;;;;;;;;;;;;;;;;;;
2022/03/31 15:57:33;;;;;;;;;;;;;;;;;;;;;
2022/03/31 16:10:04;;;;;;;;;;;;;;;;;;;;;
2022/03/31 16:34:05;;;;;;;;;;;3.80;96.00;;;;;;6193218;22;21061;-88
2022/03/31 16:40:07;;;;;;;;;;;;;;;;;;;;;
2022/03/31 16:45:55;;;;;;;;;;;;;;;;;;;;;
2022/03/31 16:48:24;;;;;;;;;;;3.90;96.00;;;;;;6124044;23;19984;-89
2022/03/31 16:59:42;;;;;;;;;;;3.80;96.10;;;;;;6178057;23;19911;-89
2022/03/31 17:02:17;;;;;;;;;;;3.90;96.10;;;;;;6167076;23;19911;-89
2022/03/31 17:04:45;;;;;;;;;;;3.90;96.10;;;;;;6194633;22;19925;-90
2022/03/31 17:07:30;;;;;;;;;;;;;;;;;;;;;
2022/03/31 17:10:14;;;;;;;;;;;3.80;96.10;;;;;;6285592;22;20285;-89
2022/03/31 17:12:46;;;;;;;;;;;3.80;96.20;;;;;;6235832;22;19907;-88
2022/03/31 17:15:55;;;;;;;;;;;3.80;96.20;;;;;;6234503;22;20234;-89
2022/03/31 17:18:49;;;;;;;;;;;3.70;96.10;;;;;;6282349;22;19935;-89
2022/03/31 17:21:17;;;;;;;;;;;3.80;96.10;;;;;;6283918;22;19975;-89
2022/03/31 17:24:04;;;;;;;;;;;3.80;96.10;;;;;;6258982;22;19904;-89
2022/03/31 17:27:05;;;;;;;;;;;3.80;96.10;;;;;;6285439;22;19949;-88
2022/03/31 17:29:49;;;;;;;;;;;3.80;96.10;;;;;;6211268;22;19907;-91
2022/03/31 17:32:46;;;;;;;;;;;3.70;96.00;;;;;;6259033;22;19915;-90
2022/03/31 17:35:51;;;;;;;;;;;3.70;96.10;;;;;;6235761;22;19916;-90
2022/03/31 17:38:31;;;;;;;;;;;;;;;;;;;;;
2022/03/31 17:41:30;;;;;;;;;;;3.80;96.20;;;;;;6265074;22;19938;-87
2022/03/31 17:44:19;;;;;;;;;;;3.80;96.10;;;;;;6238728;22;19908;-88
2022/03/31 17:46:59;;;;;;;;;;;;;;;;;;;;;
2022/03/31 17:49:32;;;;;;;;;;;3.70;96.20;;;;;;6275635;22;19915;-90
2022/03/31 17:52:21;;;;;;;;;;;3.70;96.30;;;;;;6275700;22;19898;-89
2022/03/31 17:55:36;;;;;;;;;;;3.70;96.30;;;;;;6271648;22;19947;-90
2022/03/31 17:58:24;;;;;;;;;;;3.70;96.40;;;;;;6283137;22;19907;-89
2022/03/31 18:00:55;;;;;;;;;;;3.80;96.40;;;;;;6262833;22;19983;-87
2022/03/31 18:03:36;;;;;;;;;;;;;;;;;;;;;
2022/03/31 18:06:22;;;;;;;;;;;3.80;96.40;;;;;;6260706;22;20352;-90
2022/03/31 18:09:06;;;;;;;;;;;;;;;;;;;;;
2022/03/31 18:11:36;;;;;;;;;;;3.90;96.50;;;;;;6285371;22;19919;-88
2022/03/31 18:14:25;;;;;;;;;;;3.90;96.50;;;;;;6257242;22;19907;-90
2022/03/31 18:17:17;;;;;;;;;;;;;;;;;;;;;
2022/03/31 18:26:31;;;;;;;;;;;;;;;;;;;;;
2022/03/31 18:35:34;;;;;;;;;;;4.00;96.70;;;;;;6277250;22;20013;-84